createdAt,value
2018-07-28T00:00:59.161Z,6.87
2018-07-28T00:03:28.523Z,7.13
2018-07-28T00:06:01.576Z,6.87
2018-07-28T00:08:29.929Z,5.97
2018-07-28T00:10:59.154Z,6.53
2018-07-28T00:13:29.077Z,5.90
2018-07-28T00:15:58.347Z,6.10
2018-07-28T00:18:26.798Z,6.17
2018-07-28T00:20:55.269Z,6.90
2018-07-28T00:23:27.533Z,6.07
2018-07-28T00:26:02.515Z,6.23
2018-07-28T00:28:34.491Z,6.70
2018-07-28T00:31:02.692Z,6.27
2018-07-28T00:33:31.157Z,5.80
2018-07-28T00:35:59.611Z,6.77
2018-07-28T00:38:33.726Z,6.20
2018-07-28T00:41:01.974Z,6.17
2018-07-28T00:43:35.089Z,6.43
2018-07-28T00:46:05.661Z,5.93
2018-07-28T00:48:38.161Z,6.10
2018-07-28T00:51:09.576Z,6.40
2018-07-28T00:53:42.906Z,6.30
2018-07-28T00:56:12.154Z,6.30
2018-07-28T00:58:45.217Z,6.20
2018-07-28T01:01:14.162Z,5.93
2018-07-28T01:03:45.417Z,6.27
2018-07-28T01:06:15.533Z,5.73
2018-07-28T01:08:56.730Z,6.50
2018-07-28T01:11:25.354Z,5.80
2018-07-28T01:13:53.494Z,6.33
2018-07-28T01:16:21.680Z,6.37
2018-07-28T01:18:53.465Z,6.40
2018-07-28T01:21:21.678Z,6.37
2018-07-28T01:26:25.526Z,6.70
2018-07-28T01:28:59.287Z,6.27
2018-07-28T01:31:28.370Z,6.47
2018-07-28T01:34:04.301Z,6.40
2018-07-28T01:36:32.429Z,5.83
2018-07-28T01:39:06.534Z,6.33
2018-07-28T01:41:34.691Z,6.63
2018-07-28T01:44:16.332Z,6.23
2018-07-28T01:46:44.808Z,6.83
2018-07-28T01:49:12.953Z,6.60
2018-07-28T01:51:41.371Z,7.03
2018-07-28T01:54:14.166Z,6.50
2018-07-28T01:56:42.300Z,6.27
2018-07-28T01:59:14.830Z,6.60
2018-07-28T02:01:43.248Z,8.13
2018-07-28T02:04:16.098Z,7.53
2018-07-28T02:06:44.255Z,6.53
2018-07-28T02:09:14.429Z,6.23
2018-07-28T02:11:47.763Z,6.83
2018-07-28T02:14:20.839Z,7.07
2018-07-28T02:16:49.525Z,7.07
2018-07-28T02:19:17.674Z,6.80
2018-07-28T02:21:45.806Z,6.80
2018-07-28T02:24:14.246Z,6.07
2018-07-28T02:26:42.369Z,6.00
2018-07-28T02:29:11.049Z,5.93
2018-07-28T02:31:39.827Z,6.03
2018-07-28T02:34:08.158Z,6.33
2018-07-28T02:36:36.290Z,5.17
2018-07-28T02:39:06.486Z,4.90
2018-07-28T02:41:34.633Z,5.70
2018-07-28T02:44:03.672Z,5.70
2018-07-28T02:46:35.894Z,5.83
2018-07-28T02:49:04.176Z,5.90
2018-07-28T02:51:32.370Z,6.30
2018-07-28T02:54:00.831Z,6.17
2018-07-28T02:56:28.969Z,6.50
2018-07-28T02:58:57.133Z,6.63
2018-07-28T03:01:25.836Z,6.27
2018-07-28T03:03:54.213Z,6.70
2018-07-28T03:06:22.346Z,6.73
2018-07-28T03:08:50.877Z,6.50
2018-07-28T03:11:19.003Z,6.83
2018-07-28T03:13:51.230Z,6.53
2018-07-28T03:16:19.783Z,6.63
2018-07-28T03:18:52.257Z,6.07
2018-07-28T03:21:20.369Z,5.93
2018-07-28T03:23:48.904Z,5.83
2018-07-28T03:26:18.011Z,6.50
2018-07-28T03:28:46.128Z,7.53
2018-07-28T03:31:14.582Z,6.97
2018-07-28T03:33:42.700Z,6.77
2018-07-28T03:36:10.887Z,6.63
2018-07-28T03:38:39.386Z,7.27
2018-07-28T03:41:08.441Z,7.40
2018-07-28T03:43:36.592Z,7.13
2018-07-28T03:46:09.563Z,7.50
2018-07-28T03:48:37.686Z,6.60
2018-07-28T03:51:05.813Z,7.50
2018-07-28T03:59:58.908Z,7.97
2018-07-28T04:02:27.108Z,8.00
2018-07-28T04:04:55.609Z,7.27
2018-07-28T04:07:23.922Z,6.93
2018-07-28T04:09:52.338Z,6.83
2018-07-28T04:12:25.983Z,7.63
2018-07-28T04:14:54.172Z,7.80
2018-07-28T04:17:39.520Z,7.10
2018-07-28T04:20:08.023Z,7.43
2018-07-28T04:22:36.584Z,7.17
2018-07-28T04:25:04.854Z,7.83
2018-07-28T04:27:33.459Z,7.70
2018-07-28T04:30:01.716Z,7.00
2018-07-28T04:32:43.153Z,7.60
2018-07-28T04:35:11.801Z,6.77
2018-07-28T04:37:40.227Z,7.00
2018-07-28T04:40:10.556Z,7.80
2018-07-28T04:42:40.898Z,7.70
2018-07-28T04:45:09.216Z,7.43
2018-07-28T04:47:49.952Z,7.50
2018-07-28T04:50:18.456Z,7.27
2018-07-28T04:52:46.624Z,6.60
2018-07-28T04:55:14.842Z,7.10
2018-07-28T04:57:47.339Z,7.60
2018-07-28T05:00:15.933Z,6.47
2018-07-28T05:02:48.935Z,7.00
2018-07-28T05:05:17.511Z,7.20
2018-07-28T05:07:50.253Z,7.57
2018-07-28T05:10:18.454Z,6.80
2018-07-28T05:12:47.064Z,7.17
2018-07-28T05:15:15.272Z,6.73
2018-07-28T05:17:43.448Z,7.47
2018-07-28T05:20:11.897Z,7.23
2018-07-28T05:22:40.695Z,7.47
2018-07-28T05:25:09.350Z,7.17
2018-07-28T05:27:38.102Z,6.60
2018-07-28T05:30:07.361Z,6.83
2018-07-28T05:32:35.652Z,6.80
2018-07-28T05:35:09.957Z,6.50
2018-07-28T05:37:38.121Z,7.00
2018-07-28T05:40:10.377Z,6.90
2018-07-28T05:42:38.895Z,7.57
2018-07-28T05:45:16.163Z,7.40
2018-07-28T05:47:44.411Z,6.30
2018-07-28T05:50:25.543Z,7.20
2018-07-28T05:52:53.841Z,7.17
2018-07-28T05:55:22.138Z,7.40
2018-07-28T05:57:51.654Z,7.37
2018-07-28T06:00:21.297Z,6.80
2018-07-28T06:02:49.528Z,7.23
2018-07-28T06:05:23.715Z,6.60
2018-07-28T06:07:51.898Z,6.10
2018-07-28T06:10:25.500Z,6.97
2018-07-28T06:12:53.994Z,7.17
2018-07-28T06:15:27.401Z,6.67
2018-07-28T06:17:56.085Z,6.80
2018-07-28T06:20:37.671Z,6.57
2018-07-28T06:23:07.531Z,6.57
2018-07-28T06:25:36.078Z,7.03
2018-07-28T06:28:04.279Z,6.50
2018-07-28T06:30:35.118Z,6.30
2018-07-28T06:33:03.841Z,7.53
2018-07-28T06:35:37.047Z,7.20
2018-07-28T06:38:05.261Z,7.30
2018-07-28T06:45:33.959Z,6.33
2018-07-28T06:48:02.128Z,6.03
2018-07-28T06:50:30.870Z,6.70
2018-07-28T06:52:59.007Z,5.93
2018-07-28T06:55:27.151Z,5.90
2018-07-28T06:57:55.699Z,5.20
2018-07-28T07:00:23.931Z,6.47
2018-07-28T07:02:52.113Z,6.43
2018-07-28T07:05:20.548Z,6.35
2018-07-28T07:10:22.748Z,6.53
2018-07-28T07:12:53.452Z,5.93
2018-07-28T07:15:25.100Z,5.87
2018-07-28T07:17:58.353Z,6.10
2018-07-28T07:20:26.534Z,6.60
2018-07-28T07:22:54.851Z,6.33
2018-07-28T07:25:23.643Z,6.62
2018-07-28T07:27:51.985Z,5.37
2018-07-28T07:30:20.218Z,6.12
2018-07-28T07:32:48.796Z,5.55
2018-07-28T07:35:18.471Z,6.17
2018-07-28T07:37:46.635Z,5.87
2018-07-28T07:40:15.255Z,5.90
2018-07-28T07:42:45.954Z,6.90
2018-07-28T07:45:15.157Z,7.10
2018-07-28T07:47:43.759Z,7.40
2018-07-28T07:50:16.734Z,7.40
2018-07-28T07:52:44.957Z,6.97
2018-07-28T07:55:17.174Z,6.23
2018-07-28T07:57:45.670Z,7.07
2018-07-28T08:00:13.827Z,8.77
2018-07-28T08:02:42.063Z,7.33
2018-07-28T08:05:10.566Z,8.10
2018-07-28T08:07:38.886Z,7.63
2018-07-28T08:10:07.163Z,7.53
2018-07-28T08:12:35.848Z,7.83
2018-07-28T08:15:04.352Z,7.60
2018-07-28T08:17:34.002Z,7.83
2018-07-28T08:20:03.844Z,7.10
2018-07-28T08:22:32.660Z,6.87
2018-07-28T08:25:01.162Z,6.60
2018-07-28T08:27:36.483Z,7.05
2018-07-28T08:30:05.247Z,7.20
2018-07-28T08:32:38.527Z,8.30
2018-07-28T08:35:07.635Z,6.75
2018-07-28T08:37:39.932Z,7.90
2018-07-28T08:40:08.764Z,7.55
2018-07-28T08:42:46.495Z,7.20
2018-07-28T08:45:14.814Z,6.80
2018-07-28T08:47:47.168Z,8.33
2018-07-28T08:50:15.374Z,7.37
2018-07-28T08:52:48.135Z,7.55
2018-07-28T08:55:16.774Z,8.58
2018-07-28T09:00:29.245Z,7.03
2018-07-28T09:02:57.379Z,8.08
2018-07-28T09:05:27.206Z,7.90
2018-07-28T09:07:57.830Z,7.87
2018-07-28T09:10:27.249Z,8.23
2018-07-28T09:13:00.075Z,8.20
2018-07-28T09:15:28.891Z,7.92
2018-07-28T09:18:10.801Z,7.65
2018-07-28T09:20:40.526Z,7.72
2018-07-28T09:23:08.762Z,8.38
2018-07-28T09:25:36.872Z,7.47
2018-07-28T09:28:09.809Z,8.03
2018-07-28T09:30:38.077Z,8.70
2018-07-28T09:33:11.346Z,9.18
2018-07-28T09:35:44.534Z,9.63
2018-07-28T09:38:15.361Z,9.25
2018-07-28T09:40:43.523Z,8.70
2018-07-28T09:43:19.151Z,8.25
2018-07-28T09:45:47.346Z,8.83
2018-07-28T09:48:21.542Z,8.13
2018-07-28T09:50:51.589Z,8.23
2018-07-28T09:53:23.543Z,8.25
2018-07-28T09:55:51.687Z,8.28
2018-07-28T09:58:35.159Z,8.15
2018-07-28T10:01:08.800Z,8.18
2018-07-28T10:03:37.147Z,9.08
2018-07-28T10:06:05.562Z,9.30
2018-07-28T10:08:35.192Z,7.97
2018-07-28T10:11:04.000Z,8.25
2018-07-28T10:13:34.073Z,8.10
2018-07-28T10:16:03.247Z,8.45
2018-07-28T10:18:44.426Z,8.40
2018-07-28T10:21:13.055Z,7.35
2018-07-28T10:23:41.371Z,8.65
2018-07-28T10:26:09.794Z,9.50
2018-07-28T10:28:51.044Z,8.83
2018-07-28T10:31:19.205Z,10.23
2018-07-28T10:33:47.489Z,8.83
2018-07-28T10:36:16.183Z,8.50
2018-07-28T10:38:47.853Z,8.98
2018-07-28T10:41:16.153Z,7.22
2018-07-28T10:43:54.150Z,6.50
2018-07-28T10:46:23.542Z,6.67
2018-07-28T10:48:54.626Z,6.92
2018-07-28T10:51:22.772Z,6.72
2018-07-28T10:54:03.873Z,6.80
2018-07-28T10:56:33.618Z,6.55
2018-07-28T10:59:03.979Z,6.22
2018-07-28T11:01:32.549Z,7.50
2018-07-28T11:04:01.215Z,10.40
2018-07-28T11:06:30.451Z,9.05
2018-07-28T11:09:03.716Z,10.33
2018-07-28T11:12:06.119Z,9.73
2018-07-28T11:14:36.618Z,9.00
2018-07-28T11:17:10.684Z,10.23
2018-07-28T11:19:41.095Z,8.70
2018-07-28T11:22:15.095Z,9.33
2018-07-28T11:24:45.067Z,7.42
2018-07-28T11:27:14.975Z,6.83
2018-07-28T11:29:43.158Z,6.20
2018-07-28T11:32:17.148Z,5.80
2018-07-28T11:34:50.747Z,5.28
2018-07-28T11:37:27.163Z,5.17
2018-07-28T11:40:01.078Z,5.08
2018-07-28T11:42:35.645Z,5.58
2018-07-28T11:45:09.770Z,4.85
2018-07-28T11:47:39.603Z,4.80
2018-07-28T11:50:07.752Z,4.60
2018-07-28T11:52:36.878Z,4.40
2018-07-28T11:55:07.236Z,5.25
2018-07-28T11:57:35.652Z,4.60
2018-07-28T12:00:04.806Z,5.75
2018-07-28T12:02:33.626Z,4.62
2018-07-28T12:05:01.768Z,4.90
2018-07-28T12:07:34.500Z,5.05
2018-07-28T12:10:04.159Z,5.17
2018-07-28T12:12:37.387Z,5.40
2018-07-28T12:15:06.401Z,5.30
2018-07-28T12:17:39.928Z,5.78
2018-07-28T12:20:08.354Z,5.22
2018-07-28T12:22:41.122Z,5.55
2018-07-28T12:25:09.265Z,5.25
2018-07-28T12:27:44.639Z,5.92
2018-07-28T12:30:13.471Z,5.53
2018-07-28T12:32:50.654Z,4.87
2018-07-28T12:35:19.371Z,6.03
2018-07-28T12:37:49.040Z,4.97
2018-07-28T12:40:17.990Z,4.28
2018-07-28T12:42:50.704Z,4.20
2018-07-28T12:45:19.535Z,5.17
2018-07-28T12:47:49.281Z,4.58
2018-07-28T12:50:23.783Z,4.08
2018-07-28T12:52:56.452Z,4.40
2018-07-28T12:55:24.658Z,4.17
2018-07-28T12:57:53.246Z,3.83
2018-07-28T13:00:21.402Z,4.05
2018-07-28T13:02:49.831Z,3.70
2018-07-28T13:05:18.986Z,3.58
2018-07-28T13:07:47.184Z,3.33
2018-07-28T13:10:15.671Z,3.42
2018-07-28T13:12:44.021Z,3.62
2018-07-28T13:15:12.415Z,3.27
2018-07-28T13:17:41.722Z,3.42
2018-07-28T13:20:18.233Z,4.15
2018-07-28T13:22:47.498Z,3.25
2018-07-28T13:25:17.591Z,2.92
2018-07-28T13:27:45.749Z,3.47
2018-07-28T13:30:18.418Z,3.35
2018-07-28T13:32:46.573Z,3.98
2018-07-28T13:35:18.758Z,3.60
2018-07-28T13:37:47.241Z,3.62
2018-07-28T13:40:15.408Z,3.80
2018-07-28T13:42:44.874Z,4.40
2018-07-28T13:45:13.276Z,4.22
2018-07-28T13:47:42.278Z,3.42
2018-07-28T13:50:10.898Z,3.60
2018-07-28T13:52:39.377Z,4.33
2018-07-28T13:55:09.534Z,3.95
2018-07-28T13:57:39.785Z,3.87
2018-07-28T14:00:09.146Z,3.90
2018-07-28T14:02:39.791Z,4.65
2018-07-28T14:05:13.391Z,4.20
2018-07-28T14:07:42.136Z,4.22
2018-07-28T14:10:10.501Z,4.00
2018-07-28T14:12:41.959Z,4.35
2018-07-28T14:15:12.788Z,5.17
2018-07-28T14:17:43.300Z,4.00
2018-07-28T14:20:12.456Z,4.33
2018-07-28T14:22:53.494Z,4.10
2018-07-28T14:25:22.166Z,3.95
2018-07-28T14:27:51.366Z,3.83
2018-07-28T14:30:23.603Z,4.40
2018-07-28T14:32:53.541Z,3.98
2018-07-28T14:35:21.788Z,4.80
2018-07-28T14:37:54.331Z,4.25
2018-07-28T14:40:24.181Z,5.20
2018-07-28T14:43:04.938Z,5.03
2018-07-28T14:45:34.403Z,4.92
2018-07-28T14:48:02.865Z,5.20
2018-07-28T14:50:31.022Z,4.95
2018-07-28T14:53:03.387Z,5.08
2018-07-28T14:55:32.432Z,5.47
2018-07-28T14:58:13.352Z,4.95
2018-07-28T15:00:41.584Z,4.58
2018-07-28T15:03:10.174Z,4.28
2018-07-28T15:05:38.438Z,5.00
2018-07-28T15:08:11.377Z,4.70
2018-07-28T15:10:43.250Z,4.30
2018-07-28T15:13:16.835Z,4.15
2018-07-28T15:15:45.021Z,4.28
2018-07-28T15:18:17.502Z,4.42
2018-07-28T15:20:45.863Z,4.45
2018-07-28T15:23:18.678Z,4.00
2018-07-28T15:25:46.976Z,3.65
2018-07-28T15:28:20.250Z,3.67
2018-07-28T15:30:49.171Z,3.80
2018-07-28T15:33:24.427Z,3.55
2018-07-28T15:35:53.836Z,3.40
2018-07-28T15:38:27.271Z,3.15
2018-07-28T15:40:56.819Z,3.37
2018-07-28T15:43:30.568Z,3.40
2018-07-28T15:45:58.980Z,2.92
2018-07-28T15:48:30.442Z,2.70
2018-07-28T15:50:58.902Z,2.40
2018-07-28T15:53:33.170Z,2.90
2018-07-28T15:56:04.531Z,2.87
2018-07-28T15:58:34.873Z,3.22
2018-07-28T16:01:03.170Z,2.90
2018-07-28T16:03:46.067Z,2.70
2018-07-28T16:06:14.208Z,3.00
2018-07-28T16:08:42.664Z,2.87
2018-07-28T16:11:13.523Z,2.92
2018-07-28T16:13:45.522Z,3.05
2018-07-28T16:16:14.169Z,3.15
2018-07-28T16:18:45.681Z,3.12
2018-07-28T16:21:15.089Z,3.27
2018-07-28T16:23:56.281Z,3.27
2018-07-28T16:26:24.698Z,2.90
2018-07-28T16:28:56.950Z,3.80
2018-07-28T16:31:26.566Z,3.02
2018-07-28T16:33:55.955Z,3.05
2018-07-28T16:36:24.848Z,3.52
2018-07-28T16:38:56.961Z,3.20
2018-07-28T16:41:25.577Z,3.17
2018-07-28T16:44:06.543Z,3.25
2018-07-28T16:46:35.019Z,3.37
2018-07-28T16:49:03.474Z,2.90
2018-07-28T16:51:31.808Z,3.30
2018-07-28T16:54:14.157Z,3.12
2018-07-28T16:56:42.805Z,3.50
2018-07-28T16:59:15.427Z,3.20
2018-07-28T17:01:44.893Z,3.80
2018-07-28T17:04:15.490Z,2.75
2018-07-28T17:06:44.261Z,3.60
2018-07-28T17:09:14.386Z,3.42
2018-07-28T17:11:43.458Z,3.45
2018-07-28T17:14:24.889Z,3.15
2018-07-28T17:16:55.808Z,3.27
2018-07-28T17:19:25.784Z,3.00
2018-07-28T17:21:54.608Z,3.30
2018-07-28T17:24:26.514Z,3.67
2018-07-28T17:26:55.162Z,3.08
2018-07-28T17:32:07.158Z,2.77
2018-07-28T17:40:03.475Z,2.50
2018-07-28T17:42:33.787Z,2.70
2018-07-28T17:45:03.159Z,3.25
2018-07-28T17:47:33.723Z,2.80
2018-07-28T17:50:03.543Z,2.50
2018-07-28T17:52:41.827Z,2.85
2018-07-28T17:55:10.184Z,2.67
2018-07-28T17:57:48.087Z,2.52
2018-07-28T18:00:16.775Z,3.03
2018-07-28T18:02:45.615Z,2.90
2018-07-28T18:05:14.947Z,2.87
2018-07-28T18:09:15.936Z,2.80
2018-07-28T18:11:44.629Z,2.70
2018-07-28T18:14:14.562Z,3.03
2018-07-28T18:16:55.225Z,3.37
2018-07-28T18:19:24.176Z,3.40
2018-07-28T18:21:53.956Z,2.80
2018-07-28T18:24:23.710Z,3.07
2018-07-28T18:26:53.617Z,2.87
2018-07-28T18:29:21.761Z,2.87
2018-07-28T18:31:56.346Z,3.33
2018-07-28T18:34:25.526Z,2.77
2018-07-28T18:37:06.979Z,3.13
2018-07-28T18:39:35.997Z,3.67
2018-07-28T18:42:04.802Z,4.50
2018-07-28T18:44:34.421Z,3.70
2018-07-28T18:47:04.168Z,3.40
2018-07-28T18:49:36.117Z,3.30
2018-07-28T18:52:08.859Z,2.80
2018-07-28T18:54:38.751Z,3.17
2018-07-28T18:57:14.802Z,3.50
2018-07-28T18:59:43.687Z,2.90
2018-07-28T19:02:12.458Z,2.90
2018-07-28T19:04:41.299Z,2.70
2018-07-28T19:07:14.166Z,3.07
2018-07-28T19:09:46.469Z,3.30
2018-07-28T19:12:18.411Z,3.43
2018-07-28T19:14:47.551Z,3.10
2018-07-28T19:17:19.795Z,2.73
2018-07-28T19:19:48.350Z,3.07
2018-07-28T19:22:22.290Z,2.80
2018-07-28T19:24:51.177Z,3.20
2018-07-28T19:27:24.227Z,3.00
2018-07-28T19:29:53.055Z,2.50
2018-07-28T19:32:26.442Z,2.80
2018-07-28T19:34:54.877Z,3.43
2018-07-28T19:37:28.836Z,2.87
2018-07-28T19:39:59.775Z,3.03
2018-07-28T19:42:38.492Z,3.20
2018-07-28T19:45:07.926Z,2.83
2018-07-28T19:47:36.711Z,3.23
2018-07-28T19:50:06.419Z,2.57
2018-07-28T19:52:41.297Z,3.47
2018-07-28T19:55:11.269Z,3.40
2018-07-28T19:57:46.379Z,3.63
2018-07-28T20:00:17.210Z,3.50
2018-07-28T20:02:47.317Z,3.10
2018-07-28T20:05:17.802Z,2.90
2018-07-28T20:07:46.767Z,3.53
2018-07-28T20:10:15.100Z,2.70
2018-07-28T20:12:47.820Z,3.13
2018-07-28T20:15:16.539Z,2.53
2018-07-28T20:17:50.031Z,2.67
2018-07-28T20:20:18.363Z,2.80
2018-07-28T20:22:47.184Z,2.63
2018-07-28T20:25:18.193Z,2.37
2018-07-28T20:27:48.341Z,3.03
2018-07-28T20:30:16.689Z,2.50
2018-07-28T20:32:45.565Z,2.57
2018-07-28T20:35:13.879Z,3.00
2018-07-28T20:37:43.253Z,3.17
2018-07-28T20:40:12.589Z,3.00
2018-07-28T20:42:41.955Z,3.00
2018-07-28T20:45:10.385Z,2.87
2018-07-28T20:47:40.572Z,3.00
2018-07-28T20:50:14.668Z,3.10
2018-07-28T20:52:43.162Z,3.57
2018-07-28T20:55:16.507Z,3.13
2018-07-28T20:57:44.647Z,3.43
2018-07-28T21:00:16.479Z,2.83
2018-07-28T21:02:47.827Z,3.50
2018-07-28T21:05:20.738Z,3.40
2018-07-28T21:07:51.556Z,3.73
2018-07-28T21:10:22.031Z,3.33
2018-07-28T21:15:25.594Z,2.93
2018-07-28T21:17:53.750Z,2.67
2018-07-28T21:20:28.723Z,2.40
2018-07-28T21:23:05.234Z,2.70
2018-07-28T21:25:33.748Z,3.07
2018-07-28T21:28:02.014Z,2.90
2018-07-28T21:30:31.042Z,2.90
2018-07-28T21:33:00.958Z,3.67
2018-07-28T21:35:34.607Z,2.80
2018-07-28T21:38:03.158Z,2.90
2018-07-28T21:40:43.622Z,2.80
2018-07-28T21:43:12.402Z,2.50
2018-07-28T21:45:40.553Z,2.90
2018-07-28T21:48:08.872Z,3.13
2018-07-28T21:50:42.282Z,3.30
2018-07-28T21:53:10.554Z,3.30
2018-07-28T21:55:52.519Z,2.53
2018-07-28T21:58:21.054Z,2.70
2018-07-28T22:00:55.615Z,3.27
2018-07-28T22:03:24.398Z,2.50
2018-07-28T22:05:52.972Z,3.03
2018-07-28T22:08:23.546Z,2.47
2018-07-28T22:10:51.699Z,2.50
2018-07-28T22:13:20.118Z,3.00
2018-07-28T22:15:53.594Z,2.60
2018-07-28T22:18:22.249Z,3.00
2018-07-28T22:20:59.908Z,2.40
2018-07-28T22:23:30.875Z,2.43
2018-07-28T22:25:59.713Z,2.73
2018-07-28T22:28:27.875Z,2.50
2018-07-28T22:31:00.264Z,2.50
2018-07-28T22:33:28.616Z,2.43
2018-07-28T22:35:57.142Z,2.80
2018-07-28T22:38:25.783Z,2.63
2018-07-28T22:40:54.087Z,2.40
2018-07-28T22:43:23.190Z,2.73
2018-07-28T22:45:53.420Z,2.67
2018-07-28T22:48:25.867Z,2.87
2018-07-28T22:50:54.023Z,2.50
2018-07-28T22:53:22.447Z,2.63
2018-07-28T22:55:50.608Z,2.50
2018-07-28T22:58:18.731Z,2.97
2018-07-28T23:00:47.214Z,2.60
2018-07-28T23:03:27.715Z,2.27
2018-07-28T23:05:56.950Z,2.60
2018-07-28T23:11:03.434Z,2.27
2018-07-28T23:13:34.065Z,2.60
2018-07-28T23:16:02.443Z,2.70
2018-07-28T23:18:30.820Z,2.57
2018-07-28T23:21:02.278Z,3.00
2018-07-28T23:23:30.443Z,2.43
2018-07-28T23:25:58.607Z,2.30
2018-07-28T23:28:31.322Z,2.57
2018-07-28T23:30:59.487Z,2.73
2018-07-28T23:33:32.162Z,2.80
2018-07-28T23:36:00.602Z,2.90
2018-07-28T23:38:28.747Z,2.47
2018-07-28T23:40:57.763Z,2.23
2018-07-28T23:43:26.171Z,1.93
2018-07-28T23:45:54.306Z,2.60
2018-07-28T23:48:22.457Z,3.03
2018-07-28T23:50:50.978Z,2.80
2018-07-28T23:53:19.534Z,2.70
2018-07-28T23:55:47.692Z,2.60
2018-07-28T23:58:18.761Z,2.40
